Terminal Aerodrome Forecast
Issued by NWS

Home | Current Version | Previous Version | Text Only | Print | Product List | Glossary On
Versions: 1 2 3 4 5 6 7 8 9 10 11 12 13 14 15 16 17 18 19 20 21
000
FTUS43 KGLD 282002 AAA
TAFMCK
TAF AMD
KMCK 282002Z 2820/2918 13010G16KT 6SM -RA BR OVC010
      TEMPO 2820/2824 1 1/2SM RA BR OVC003
     FM290000 07012KT 3SM -RA BR OVC002
     FM290600 06012KT 2SM -RA BR OVC002
     FM291200 03011KT 1SM -RA BR OVC002=

USA.gov is the U.S. government's official web portal to all federal, state and local government web resources and services.